Gatwick, United Kingdom
Current Conditions -  °F | °C
As of 7:20 PM on Tuesday 21 Oct 2014 (Local Time) from EGKK Reporting Station
Few Clouds Few Clouds  
Wind Chill: 50°   Ceiling: Unl
Heat Index: 50°   Visibility: 6mi
Dew Point: 36°   Wind: 23mph
Humidity: 58%   Direction: 300°WNW
Pressure: 29.97"   Gusts: NA
Location:  51.1°N, 0.15°W
Report Text: EGKK 211820Z 30020KT 9999 FEW044 10/02 Q1015
Loading
Personal Weather Stations






























Interactive Weather Map
Tropical Storm Tracking
New forecast layout! Learn more

10-Day Weather Forecast

Advertisements
Track Severe Weather on mobile